LFPM 191300Z AUTO 11005KT 060V140 CAVOK 23/08 Q1024

ElémentsDécodage
LFPM Station météo située sur l'aérodrome de MELUN Villaroche
191300Z émis le 19 du mois à 13h00 UTC
AUTO Bulletin édité par un automate
11005KT vent du 110°, 05 noeuds
060V140 vent de direction variable entre 060° et 140°
CAVOK Ceiling And Visibility OK
- Visibilité de 10 Km ou plus
- Pas de nuage au-dessous de 1500m ou au-dessous de l'altitude minimale du secteur la plus élevée (si>1500m) et absence de CB
- pas de temps présent significatif
23/08 température 23°C, point de rosée 08°C
 soit une humidité relative de 38%
Q1024 la pression au niveau de la mer (QNH) est de 1024 hPa